createdAt,value
2023-03-04T00:00:09.137Z,24.6170
2023-03-04T00:00:20.326Z,24.6120
2023-03-04T00:00:31.534Z,24.6330
2023-03-04T00:00:42.734Z,24.6330
2023-03-04T00:00:53.956Z,24.6330
2023-03-04T00:01:05.134Z,24.6380
2023-03-04T00:01:16.322Z,24.6280
2023-03-04T00:01:27.374Z,24.6170
2023-03-04T00:01:38.541Z,24.6230
2023-03-04T00:01:49.665Z,24.6170
2023-03-04T00:02:00.914Z,24.6020
2023-03-04T00:02:12.012Z,24.5960
2023-03-04T00:02:23.241Z,24.5960
2023-03-04T00:02:34.404Z,24.6070
2023-03-04T00:02:45.669Z,24.6120
2023-03-04T00:02:56.868Z,24.6070
2023-03-04T00:03:08.062Z,24.6070
2023-03-04T00:03:19.235Z,24.6120
2023-03-04T00:03:30.284Z,24.6120
2023-03-04T00:03:41.343Z,24.6070
2023-03-04T00:03:52.496Z,24.6120
2023-03-04T00:04:03.700Z,24.6020
2023-03-04T00:04:14.883Z,24.6020
2023-03-04T00:04:26.085Z,24.6020
2023-03-04T00:04:37.130Z,24.6120
2023-03-04T00:04:48.173Z,24.5910
2023-03-04T00:04:59.419Z,24.5870
2023-03-04T00:05:10.563Z,24.5870
2023-03-04T00:05:21.762Z,24.5870
2023-03-04T00:05:32.831Z,24.5930
2023-03-04T00:05:43.895Z,24.5980
2023-03-04T00:05:55.052Z,24.5930
2023-03-04T00:06:06.263Z,24.5910
2023-03-04T00:06:17.462Z,24.6070
2023-03-04T00:06:28.654Z,24.5960
2023-03-04T00:06:39.855Z,24.5960
2023-03-04T00:06:51.048Z,24.6030
2023-03-04T00:07:02.285Z,24.6020
2023-03-04T00:07:13.448Z,24.6020
2023-03-04T00:07:24.665Z,24.5930
2023-03-04T00:07:35.849Z,24.5770
2023-03-04T00:07:46.913Z,24.5870
2023-03-04T00:07:58.002Z,24.5770
2023-03-04T00:08:09.129Z,24.5650
2023-03-04T00:08:20.179Z,24.5770
2023-03-04T00:08:31.243Z,24.5720
2023-03-04T00:08:42.426Z,24.5720
2023-03-04T00:08:53.504Z,24.5720
2023-03-04T00:09:04.594Z,24.5770
2023-03-04T00:09:15.689Z,24.5650
2023-03-04T00:09:26.919Z,24.5770
2023-03-04T00:09:38.095Z,24.5620
2023-03-04T00:09:49.319Z,24.5620
2023-03-04T00:10:00.375Z,24.5460
2023-03-04T00:10:11.453Z,24.5460
2023-03-04T00:10:22.581Z,24.5570
2023-03-04T00:10:33.638Z,24.5510
2023-03-04T00:10:44.683Z,24.5410
2023-03-04T00:10:55.854Z,24.5410
2023-03-04T00:11:06.918Z,24.5460
2023-03-04T00:11:17.986Z,24.5360
2023-03-04T00:11:29.133Z,24.5460
2023-03-04T00:11:40.251Z,24.5310
2023-03-04T00:11:51.291Z,24.5390
2023-03-04T00:12:02.412Z,24.5390
2023-03-04T00:12:13.460Z,24.5440
2023-03-04T00:12:24.500Z,24.5480
2023-03-04T00:12:35.689Z,24.5480
2023-03-04T00:12:46.907Z,24.5690
2023-03-04T00:12:58.089Z,24.5830
2023-03-04T00:13:09.299Z,24.5880
2023-03-04T00:13:20.502Z,24.5980
2023-03-04T00:13:31.701Z,24.5980
2023-03-04T00:13:42.890Z,24.5930
2023-03-04T00:13:54.092Z,24.5930
2023-03-04T00:14:05.318Z,24.5850
2023-03-04T00:14:16.500Z,24.5910
2023-03-04T00:14:30.292Z,24.5850
2023-03-04T00:14:41.519Z,24.6440
2023-03-04T00:14:52.533Z,24.6140
2023-03-04T00:15:03.625Z,24.5980
2023-03-04T00:15:14.694Z,24.5930
2023-03-04T00:15:25.930Z,24.5980
2023-03-04T00:15:37.136Z,24.6040
2023-03-04T00:15:48.344Z,24.6130
2023-03-04T00:15:59.605Z,24.6130
2023-03-04T00:16:10.754Z,24.6230
2023-03-04T00:16:22.008Z,24.6180
2023-03-04T00:16:33.250Z,24.6070
2023-03-04T00:16:44.381Z,24.6130
2023-03-04T00:16:55.528Z,24.6020
2023-03-04T00:17:06.733Z,24.6020
2023-03-04T00:17:17.932Z,24.6070
2023-03-04T00:17:29.123Z,24.6020
2023-03-04T00:17:40.340Z,24.6070
2023-03-04T00:17:51.624Z,24.5970
2023-03-04T00:18:02.663Z,24.6110
2023-03-04T00:18:13.731Z,24.6110
2023-03-04T00:18:24.832Z,24.6220
2023-03-04T00:18:36.024Z,24.6430
2023-03-04T00:18:47.203Z,24.6320
2023-03-04T00:18:58.429Z,24.6320
2023-03-04T00:19:09.451Z,24.6110
2023-03-04T00:19:20.490Z,24.6180
2023-03-04T00:19:31.697Z,24.6070
2023-03-04T00:19:42.883Z,24.6130
2023-03-04T00:19:54.112Z,24.5970
2023-03-04T00:20:05.354Z,24.6070
2023-03-04T00:20:16.413Z,24.6070
2023-03-04T00:20:27.473Z,24.5920
2023-03-04T00:20:38.589Z,24.6020
2023-03-04T00:20:49.784Z,24.5870
2023-03-04T00:21:00.989Z,24.5970
2023-03-04T00:21:12.179Z,24.5830
2023-03-04T00:21:23.222Z,24.5880
2023-03-04T00:21:34.286Z,24.5830
2023-03-04T00:21:45.468Z,24.5670
2023-03-04T00:21:56.656Z,24.5670
2023-03-04T00:22:07.724Z,24.5720
2023-03-04T00:22:18.781Z,24.5550
2023-03-04T00:22:29.844Z,24.5590
2023-03-04T00:22:40.926Z,24.5640
2023-03-04T00:22:52.025Z,24.5590
2023-03-04T00:23:03.203Z,24.5540
2023-03-04T00:23:14.414Z,24.5590
2023-03-04T00:23:25.632Z,24.5540
2023-03-04T00:23:36.810Z,24.5640
2023-03-04T00:23:48.011Z,24.5590
2023-03-04T00:23:59.212Z,24.5550
2023-03-04T00:24:10.417Z,24.5670
2023-03-04T00:24:21.604Z,24.5620
2023-03-04T00:24:32.652Z,24.5720
2023-03-04T00:24:43.740Z,24.5550
2023-03-04T00:24:54.908Z,24.5550
2023-03-04T00:25:06.111Z,24.5550
2023-03-04T00:25:17.317Z,24.5720
2023-03-04T00:25:28.508Z,24.5670
2023-03-04T00:25:40.485Z,24.5800
2023-03-04T00:25:53.171Z,24.6280
2023-03-04T00:26:04.324Z,24.5970
2023-03-04T00:26:15.382Z,24.5870
2023-03-04T00:26:26.417Z,24.5700
2023-03-04T00:26:37.609Z,24.5750
2023-03-04T00:26:48.822Z,24.5800
2023-03-04T00:27:00.042Z,24.5920
2023-03-04T00:27:11.221Z,24.5800
2023-03-04T00:27:22.282Z,24.5800
2023-03-04T00:27:33.333Z,24.5700
2023-03-04T00:27:44.494Z,24.5800
2023-03-04T00:27:55.694Z,24.5800
2023-03-04T00:28:06.756Z,24.5840
2023-03-04T00:28:17.805Z,24.5930
2023-03-04T00:28:28.845Z,24.6040
2023-03-04T00:28:39.912Z,24.6090
2023-03-04T00:28:51.052Z,24.5950
2023-03-04T00:29:02.244Z,24.6060
2023-03-04T00:29:13.468Z,24.5950
2023-03-04T00:29:24.649Z,24.6000
2023-03-04T00:29:35.684Z,24.5950
2023-03-04T00:29:46.814Z,24.5900
2023-03-04T00:29:57.943Z,24.5800
2023-03-04T00:30:09.155Z,24.5870
2023-03-04T00:30:20.212Z,24.5870
2023-03-04T00:30:31.286Z,24.5950
2023-03-04T00:30:42.332Z,24.5900
2023-03-04T00:30:53.391Z,24.5790
2023-03-04T00:31:04.490Z,24.5740
2023-03-04T00:31:15.706Z,24.5870
2023-03-04T00:31:27.062Z,24.5870
2023-03-04T00:31:38.197Z,24.5700
2023-03-04T00:31:49.353Z,24.5650
2023-03-04T00:32:00.686Z,24.5790
2023-03-04T00:32:12.185Z,24.5840
2023-03-04T00:32:23.405Z,24.5790
2023-03-04T00:32:34.520Z,24.5870
2023-03-04T00:32:45.728Z,24.5870
2023-03-04T00:32:56.854Z,24.5700
2023-03-04T00:33:07.893Z,24.5750
2023-03-04T00:33:18.960Z,24.5700
2023-03-04T00:33:30.102Z,24.5750
2023-03-04T00:33:41.299Z,24.5650
2023-03-04T00:33:52.365Z,24.5550
2023-03-04T00:34:03.437Z,24.5500
2023-03-04T00:34:14.605Z,24.5400
2023-03-04T00:34:25.706Z,24.5400
2023-03-04T00:34:36.762Z,24.5290
2023-03-04T00:34:47.853Z,24.5340
2023-03-04T00:34:58.886Z,24.5340
2023-03-04T00:35:09.980Z,24.5290
2023-03-04T00:35:21.189Z,24.5340
2023-03-04T00:35:32.379Z,24.5240
2023-03-04T00:35:43.590Z,24.5400
2023-03-04T00:35:54.760Z,24.5450
2023-03-04T00:36:05.817Z,24.5440
2023-03-04T00:36:16.888Z,24.5440
2023-03-04T00:36:27.930Z,24.5540
2023-03-04T00:36:38.981Z,24.5440
2023-03-04T00:36:50.092Z,24.5490
2023-03-04T00:37:01.293Z,24.5490
2023-03-04T00:37:12.332Z,24.5540
2023-03-04T00:37:23.402Z,24.5590
2023-03-04T00:37:34.568Z,24.5530
2023-03-04T00:37:45.679Z,24.5690
2023-03-04T00:37:56.752Z,24.5690
2023-03-04T00:38:07.848Z,24.5740
2023-03-04T00:38:18.904Z,24.5800
2023-03-04T00:38:29.953Z,24.5650
2023-03-04T00:38:41.132Z,24.5590
2023-03-04T00:38:52.325Z,24.5590
2023-03-04T00:39:03.532Z,24.5540
2023-03-04T00:39:14.721Z,24.5700
2023-03-04T00:39:25.761Z,24.5750
2023-03-04T00:39:36.825Z,24.5700
2023-03-04T00:39:48.005Z,24.5630
2023-03-04T00:39:59.236Z,24.5630
2023-03-04T00:40:10.433Z,24.5880
2023-03-04T00:40:21.628Z,24.5830
2023-03-04T00:40:32.832Z,24.5830
2023-03-04T00:40:44.000Z,24.5930
2023-03-04T00:40:55.231Z,24.5990
2023-03-04T00:41:06.432Z,24.5880
2023-03-04T00:41:17.612Z,24.5900
2023-03-04T00:41:28.665Z,24.5840
2023-03-04T00:41:39.738Z,24.5690
2023-03-04T00:41:50.894Z,24.5740
2023-03-04T00:42:02.097Z,24.5930
2023-03-04T00:42:13.291Z,24.5990
2023-03-04T00:42:24.528Z,24.5930
2023-03-04T00:42:35.565Z,24.6070
2023-03-04T00:42:46.637Z,24.6040
2023-03-04T00:42:57.771Z,24.5990
2023-03-04T00:43:08.985Z,24.5830
2023-03-04T00:43:20.056Z,24.5780
2023-03-04T00:43:31.093Z,24.5790
2023-03-04T00:43:42.250Z,24.5690
2023-03-04T00:43:53.441Z,24.5740
2023-03-04T00:44:04.681Z,24.5720
2023-03-04T00:44:15.851Z,24.5880
2023-03-04T00:44:27.052Z,24.6070
2023-03-04T00:44:38.093Z,24.6120
2023-03-04T00:44:49.131Z,24.6280
2023-03-04T00:45:00.358Z,24.6280
2023-03-04T00:45:11.552Z,24.6280
2023-03-04T00:45:22.732Z,24.6140
2023-03-04T00:45:34.054Z,24.5990
2023-03-04T00:45:45.181Z,24.6090
2023-03-04T00:45:56.304Z,24.5930
2023-03-04T00:46:07.422Z,24.5900
2023-03-04T00:46:18.545Z,24.5630
2023-03-04T00:46:29.612Z,24.5740
2023-03-04T00:46:40.818Z,24.5580
2023-03-04T00:46:51.848Z,24.5540
2023-03-04T00:47:02.892Z,24.5440
2023-03-04T00:47:14.093Z,24.5440
2023-03-04T00:47:25.287Z,24.5420
2023-03-04T00:47:36.508Z,24.5480
2023-03-04T00:47:47.692Z,24.5580
2023-03-04T00:47:58.769Z,24.5570
2023-03-04T00:48:09.837Z,24.5830
2023-03-04T00:48:20.981Z,24.5780
2023-03-04T00:48:32.160Z,24.5830
2023-03-04T00:48:43.222Z,24.5830
2023-03-04T00:48:54.303Z,24.5900
2023-03-04T00:49:05.386Z,24.6100
2023-03-04T00:49:16.430Z,24.6210
2023-03-04T00:49:27.547Z,24.6150
2023-03-04T00:49:38.748Z,24.6170
2023-03-04T00:49:49.922Z,24.6070
2023-03-04T00:50:01.142Z,24.6040
2023-03-04T00:50:12.267Z,24.5990
2023-03-04T00:50:23.331Z,24.5930
2023-03-04T00:50:34.402Z,24.5830
2023-03-04T00:50:45.612Z,24.5720
2023-03-04T00:50:56.812Z,24.5670
2023-03-04T00:51:08.025Z,24.5620
2023-03-04T00:51:19.212Z,24.5690
2023-03-04T00:51:30.411Z,24.5690
2023-03-04T00:51:41.614Z,24.5570
2023-03-04T00:51:52.800Z,24.5780
2023-03-04T00:52:04.023Z,24.5780
2023-03-04T00:52:15.100Z,24.5830
2023-03-04T00:52:26.168Z,24.5780
2023-03-04T00:52:37.291Z,24.5720
2023-03-04T00:52:48.488Z,24.5530
2023-03-04T00:52:59.686Z,24.5690
2023-03-04T00:53:10.890Z,24.5580
2023-03-04T00:53:22.085Z,24.5530
2023-03-04T00:53:33.293Z,24.5670
2023-03-04T00:53:44.522Z,24.5830
2023-03-04T00:53:55.696Z,24.5780
2023-03-04T00:54:06.892Z,24.6010
2023-03-04T00:54:17.970Z,24.6120
2023-03-04T00:54:29.013Z,24.5990
2023-03-04T00:54:40.184Z,24.6250
2023-03-04T00:54:51.361Z,24.6300
2023-03-04T00:55:02.596Z,24.6330
2023-03-04T00:55:13.802Z,24.6380
2023-03-04T00:55:24.987Z,24.6380
2023-03-04T00:55:36.176Z,24.6380
2023-03-04T00:55:47.391Z,24.6280
2023-03-04T00:55:58.564Z,24.6380
2023-03-04T00:56:09.769Z,24.6300
2023-03-04T00:56:20.964Z,24.6250
2023-03-04T00:56:32.181Z,24.6330
2023-03-04T00:56:43.392Z,24.6450
2023-03-04T00:56:54.451Z,24.6470
2023-03-04T00:57:05.540Z,24.6500
2023-03-04T00:57:16.648Z,24.6380
2023-03-04T00:57:27.841Z,24.6400
2023-03-04T00:57:39.049Z,24.6320
2023-03-04T00:57:50.242Z,24.6320
2023-03-04T00:58:01.465Z,24.6210
2023-03-04T00:58:12.652Z,24.6070
2023-03-04T00:58:23.725Z,24.6070
2023-03-04T00:58:34.802Z,24.5900
2023-03-04T00:58:45.941Z,24.5960
2023-03-04T00:58:57.128Z,24.6100
2023-03-04T00:59:08.351Z,24.6040
2023-03-04T00:59:19.521Z,24.6100
2023-03-04T00:59:30.730Z,24.6100
2023-03-04T00:59:41.933Z,24.6040
2023-03-04T00:59:53.145Z,24.6040
2023-03-04T01:00:04.321Z,24.6010
2023-03-04T01:00:15.491Z,24.6010
2023-03-04T01:00:26.532Z,24.5900
2023-03-04T01:00:37.638Z,24.5990
2023-03-04T01:00:48.801Z,24.6180
2023-03-04T01:01:00.044Z,24.6230
2023-03-04T01:01:11.262Z,24.6320
2023-03-04T01:01:22.481Z,24.6420
2023-03-04T01:01:33.656Z,24.6420
2023-03-04T01:01:44.844Z,24.6470
2023-03-04T01:01:56.018Z,24.6470
2023-03-04T01:02:07.302Z,24.6620
2023-03-04T01:02:18.444Z,24.6620
2023-03-04T01:02:29.499Z,24.6620
2023-03-04T01:02:40.636Z,24.6560
2023-03-04T01:02:51.730Z,24.6560
2023-03-04T01:03:02.818Z,24.6630
2023-03-04T01:03:13.857Z,24.6620
2023-03-04T01:03:25.321Z,24.6890
2023-03-04T01:03:36.372Z,24.6920
2023-03-04T01:03:47.440Z,24.6920
2023-03-04T01:03:58.572Z,24.6970
2023-03-04T01:04:09.766Z,24.7020
2023-03-04T01:04:20.967Z,24.6920
2023-03-04T01:04:32.171Z,24.6970
2023-03-04T01:04:43.371Z,24.7140
2023-03-04T01:04:54.584Z,24.7140
2023-03-04T01:05:05.650Z,24.7080
2023-03-04T01:05:16.772Z,24.7020
2023-03-04T01:05:27.851Z,24.6970
2023-03-04T01:05:38.910Z,24.7080
2023-03-04T01:05:49.976Z,24.7100
2023-03-04T01:06:01.134Z,24.7310
2023-03-04T01:06:12.333Z,24.7260
2023-03-04T01:06:23.530Z,24.7370
2023-03-04T01:06:34.742Z,24.7420
2023-03-04T01:06:45.788Z,24.7210
2023-03-04T01:06:56.854Z,24.7140
2023-03-04T01:07:08.011Z,24.6940
2023-03-04T01:07:19.208Z,24.6720
2023-03-04T01:07:30.416Z,24.6630
2023-03-04T01:07:41.637Z,24.6600
2023-03-04T01:07:52.814Z,24.6460
2023-03-04T01:08:04.012Z,24.6370
2023-03-04T01:08:15.227Z,24.6210
2023-03-04T01:08:26.410Z,24.6210
2023-03-04T01:08:37.611Z,24.6170
2023-03-04T01:08:48.679Z,24.6170
2023-03-04T01:08:59.759Z,24.5960
2023-03-04T01:09:10.903Z,24.6010
2023-03-04T01:09:22.080Z,24.6150
2023-03-04T01:09:33.297Z,24.6280
2023-03-04T01:09:44.514Z,24.6530
2023-03-04T01:09:55.543Z,24.6560
2023-03-04T01:10:06.608Z,24.6620
2023-03-04T01:10:17.794Z,24.6510
2023-03-04T01:10:28.963Z,24.6670
2023-03-04T01:10:40.202Z,24.6620
2023-03-04T01:10:51.370Z,24.6560
2023-03-04T01:11:02.559Z,24.6560
2023-03-04T01:11:13.781Z,24.6620
2023-03-04T01:11:24.966Z,24.6620
2023-03-04T01:11:36.176Z,24.6560
2023-03-04T01:11:47.377Z,24.6580
2023-03-04T01:11:58.412Z,24.6550
2023-03-04T01:12:09.500Z,24.6400
2023-03-04T01:12:20.529Z,24.6250
2023-03-04T01:12:31.634Z,24.6130
2023-03-04T01:12:42.729Z,24.6230
2023-03-04T01:12:53.938Z,24.6370
2023-03-04T01:13:04.999Z,24.6420
2023-03-04T01:13:16.058Z,24.6330
2023-03-04T01:13:27.205Z,24.6370
2023-03-04T01:13:38.410Z,24.6250
2023-03-04T01:13:49.610Z,24.6510
2023-03-04T01:14:00.808Z,24.6560
2023-03-04T01:14:12.024Z,24.6510
2023-03-04T01:14:23.209Z,24.6370
2023-03-04T01:14:34.411Z,24.6380
2023-03-04T01:14:45.610Z,24.6330
2023-03-04T01:14:56.810Z,24.6250
2023-03-04T01:15:07.860Z,24.6330
2023-03-04T01:15:18.933Z,24.6420
2023-03-04T01:15:30.093Z,24.6370
2023-03-04T01:15:41.286Z,24.6410
2023-03-04T01:15:52.491Z,24.6560
2023-03-04T01:16:03.706Z,24.6670
2023-03-04T01:16:14.829Z,24.6670
2023-03-04T01:16:26.100Z,24.6810
2023-03-04T01:16:37.373Z,24.6810
2023-03-04T01:16:48.542Z,24.6870
2023-03-04T01:16:59.834Z,24.6920
2023-03-04T01:17:10.929Z,24.6720
2023-03-04T01:17:22.096Z,24.6460
2023-03-04T01:17:33.311Z,24.6470
2023-03-04T01:17:44.573Z,24.6500
2023-03-04T01:17:55.730Z,24.6350
2023-03-04T01:18:06.907Z,24.6150
2023-03-04T01:18:18.097Z,24.6150
2023-03-04T01:18:29.290Z,24.6010
2023-03-04T01:18:40.511Z,24.6040
2023-03-04T01:18:51.685Z,24.6080
2023-03-04T01:19:02.895Z,24.6180
2023-03-04T01:19:13.929Z,24.6170
2023-03-04T01:19:24.988Z,24.6320
2023-03-04T01:19:36.170Z,24.6420
2023-03-04T01:19:47.364Z,24.6460
2023-03-04T01:19:58.576Z,24.6560
2023-03-04T01:20:09.778Z,24.6550
2023-03-04T01:20:20.990Z,24.6760
2023-03-04T01:20:32.162Z,24.6920
2023-03-04T01:20:43.384Z,24.7020
2023-03-04T01:20:54.575Z,24.7080
2023-03-04T01:21:05.672Z,24.7020
2023-03-04T01:21:16.714Z,24.6870
2023-03-04T01:21:27.756Z,24.6810
2023-03-04T01:21:38.818Z,24.6710
2023-03-04T01:21:49.926Z,24.6620
2023-03-04T01:22:01.132Z,24.6670
2023-03-04T01:22:12.339Z,24.6720
2023-03-04T01:22:23.541Z,24.6720
2023-03-04T01:22:34.605Z,24.6810
2023-03-04T01:22:45.856Z,24.6720
2023-03-04T01:22:56.918Z,24.6670
2023-03-04T01:23:08.011Z,24.6560
2023-03-04T01:23:19.220Z,24.6620
2023-03-04T01:23:30.280Z,24.6560
2023-03-04T01:23:41.325Z,24.6510
2023-03-04T01:23:52.496Z,24.6460
2023-03-04T01:24:03.701Z,24.6510
2023-03-04T01:24:14.895Z,24.6420
2023-03-04T01:24:26.095Z,24.6330
2023-03-04T01:24:37.280Z,24.6170
2023-03-04T01:24:48.498Z,24.6230
2023-03-04T01:24:59.691Z,24.6170
2023-03-04T01:25:10.945Z,24.6170
2023-03-04T01:25:22.114Z,24.6070
2023-03-04T01:25:33.167Z,24.6000
2023-03-04T01:25:44.229Z,24.6150
2023-03-04T01:25:55.375Z,24.6150
2023-03-04T01:26:06.577Z,24.6250
2023-03-04T01:26:17.770Z,24.6410
2023-03-04T01:26:28.959Z,24.6450
2023-03-04T01:26:40.174Z,24.6550
2023-03-04T01:26:51.379Z,24.6610
2023-03-04T01:27:02.565Z,24.6610
2023-03-04T01:27:13.764Z,24.6610
2023-03-04T01:27:24.989Z,24.6660
2023-03-04T01:27:36.014Z,24.6810
2023-03-04T01:27:47.062Z,24.6710
2023-03-04T01:27:58.248Z,24.6550
2023-03-04T01:28:09.448Z,24.6610
2023-03-04T01:28:20.492Z,24.6550
2023-03-04T01:28:31.559Z,24.6460
2023-03-04T01:28:42.756Z,24.6360
2023-03-04T01:28:53.846Z,24.6260
2023-03-04T01:29:04.906Z,24.6170
2023-03-04T01:29:16.005Z,24.6080
2023-03-04T01:29:29.918Z,24.5940
2023-03-04T01:29:41.334Z,24.6530
2023-03-04T01:29:52.486Z,24.6300
2023-03-04T01:30:03.679Z,24.6080
2023-03-04T01:30:14.895Z,24.6250
2023-03-04T01:30:25.978Z,24.6130
2023-03-04T01:30:37.115Z,24.6030
2023-03-04T01:30:48.213Z,24.6080
2023-03-04T01:30:59.464Z,24.5980
2023-03-04T01:31:10.591Z,24.5920
2023-03-04T01:31:21.759Z,24.5920
2023-03-04T01:31:32.810Z,24.5810
2023-03-04T01:31:43.886Z,24.5890
2023-03-04T01:31:55.073Z,24.6080
2023-03-04T01:32:06.300Z,24.6030
2023-03-04T01:32:17.552Z,24.6080
2023-03-04T01:32:28.696Z,24.6080
2023-03-04T01:32:39.842Z,24.6080
2023-03-04T01:32:50.897Z,24.5950
2023-03-04T01:33:01.928Z,24.5910
2023-03-04T01:33:13.133Z,24.5810
2023-03-04T01:33:24.323Z,24.5750
2023-03-04T01:33:35.388Z,24.5810
2023-03-04T01:33:46.449Z,24.5810
2023-03-04T01:33:57.610Z,24.5960
2023-03-04T01:34:08.809Z,24.5890
2023-03-04T01:34:20.009Z,24.5890
2023-03-04T01:34:31.220Z,24.5910
2023-03-04T01:34:42.256Z,24.5960
2023-03-04T01:34:53.287Z,24.5960
2023-03-04T01:35:04.488Z,24.5830
2023-03-04T01:35:15.677Z,24.6000
2023-03-04T01:35:26.937Z,24.6080
2023-03-04T01:35:38.144Z,24.6360
2023-03-04T01:35:49.330Z,24.6340
2023-03-04T01:36:00.498Z,24.6550
2023-03-04T01:36:11.696Z,24.6620
2023-03-04T01:36:22.886Z,24.6620
2023-03-04T01:36:34.120Z,24.6520
2023-03-04T01:36:45.294Z,24.6660
2023-03-04T01:36:56.496Z,24.6500
2023-03-04T01:37:07.695Z,24.6400
2023-03-04T01:37:18.774Z,24.6250
2023-03-04T01:37:29.809Z,24.6250
2023-03-04T01:37:40.983Z,24.6080
2023-03-04T01:37:52.168Z,24.6150
2023-03-04T01:38:04.927Z,24.6150
2023-03-04T01:38:16.210Z,24.6610
2023-03-04T01:38:27.262Z,24.6550
2023-03-04T01:38:38.312Z,24.6520
2023-03-04T01:38:49.445Z,24.6500
2023-03-04T01:39:00.643Z,24.6340
2023-03-04T01:39:11.854Z,24.6400
2023-03-04T01:39:22.944Z,24.6450
2023-03-04T01:39:34.012Z,24.6520
2023-03-04T01:39:45.120Z,24.6360
2023-03-04T01:39:56.341Z,24.6400
2023-03-04T01:40:07.522Z,24.6410
2023-03-04T01:40:18.765Z,24.6360
2023-03-04T01:40:29.955Z,24.6360
2023-03-04T01:40:41.137Z,24.6450
2023-03-04T01:40:52.332Z,24.6340
2023-03-04T01:41:03.526Z,24.6180
2023-03-04T01:41:14.726Z,24.6130
2023-03-04T01:41:25.941Z,24.6020
2023-03-04T01:41:37.004Z,24.6070
2023-03-04T01:41:48.061Z,24.6070
2023-03-04T01:41:59.222Z,24.6180
2023-03-04T01:42:10.415Z,24.6310
2023-03-04T01:42:21.634Z,24.6460
2023-03-04T01:42:32.809Z,24.6610
2023-03-04T01:42:44.010Z,24.6610
2023-03-04T01:42:55.219Z,24.6660
2023-03-04T01:43:06.417Z,24.6870
2023-03-04T01:43:17.616Z,24.6720
2023-03-04T01:43:28.827Z,24.6620
2023-03-04T01:43:39.883Z,24.6770
2023-03-04T01:43:50.932Z,24.6720
2023-03-04T01:44:02.092Z,24.6770
2023-03-04T01:44:13.284Z,24.6910
2023-03-04T01:44:24.530Z,24.6970
2023-03-04T01:44:35.685Z,24.7070
2023-03-04T01:44:46.745Z,24.7160
2023-03-04T01:44:57.802Z,24.7160
2023-03-04T01:45:08.981Z,24.7210
2023-03-04T01:45:20.051Z,24.7210
2023-03-04T01:45:31.147Z,24.7070
2023-03-04T01:45:42.263Z,24.7020
2023-03-04T01:45:53.415Z,24.6870
2023-03-04T01:46:04.700Z,24.6660
2023-03-04T01:46:15.870Z,24.6670
2023-03-04T01:46:27.066Z,24.6520
2023-03-04T01:46:38.371Z,24.6520
2023-03-04T01:46:49.440Z,24.6520
2023-03-04T01:47:00.641Z,24.6460
2023-03-04T01:47:11.864Z,24.6360
2023-03-04T01:47:22.934Z,24.6400
2023-03-04T01:47:33.977Z,24.6230
2023-03-04T01:47:45.133Z,24.6130
2023-03-04T01:47:56.199Z,24.6340
2023-03-04T01:48:07.270Z,24.6260
2023-03-04T01:48:18.304Z,24.6310
2023-03-04T01:48:29.371Z,24.6310
2023-03-04T01:48:40.506Z,24.6310
2023-03-04T01:48:51.724Z,24.6410
2023-03-04T01:49:02.837Z,24.6280
2023-03-04T01:49:14.151Z,24.6180
2023-03-04T01:49:25.304Z,24.5920
2023-03-04T01:49:36.491Z,24.5930
2023-03-04T01:49:47.712Z,24.5930
2023-03-04T01:49:58.891Z,24.5980
2023-03-04T01:50:10.092Z,24.5860
2023-03-04T01:50:21.157Z,24.5810
2023-03-04T01:50:32.248Z,24.5860
2023-03-04T01:50:43.371Z,24.5970
2023-03-04T01:50:54.560Z,24.5920
2023-03-04T01:51:05.648Z,24.5970
2023-03-04T01:51:16.714Z,24.6040
2023-03-04T01:51:27.878Z,24.6100
2023-03-04T01:51:39.054Z,24.6260
2023-03-04T01:51:50.246Z,24.6350
2023-03-04T01:52:01.443Z,24.6300
2023-03-04T01:52:12.488Z,24.6350
2023-03-04T01:52:23.538Z,24.6150
2023-03-04T01:52:34.740Z,24.6100
2023-03-04T01:52:45.921Z,24.6100
2023-03-04T01:52:57.133Z,24.6020
2023-03-04T01:53:08.323Z,24.5970
2023-03-04T01:53:19.535Z,24.5810
2023-03-04T01:53:30.732Z,24.5810
2023-03-04T01:53:41.928Z,24.5920
2023-03-04T01:53:53.129Z,24.5970
2023-03-04T01:54:04.333Z,24.5920
2023-03-04T01:54:15.427Z,24.5970
2023-03-04T01:54:26.482Z,24.5920
2023-03-04T01:54:37.633Z,24.5810
2023-03-04T01:54:48.807Z,24.5710
2023-03-04T01:55:00.003Z,24.5810
2023-03-04T01:55:11.218Z,24.5590
2023-03-04T01:55:22.445Z,24.5560
2023-03-04T01:55:33.650Z,24.5510
2023-03-04T01:55:44.817Z,24.5510
2023-03-04T01:55:56.027Z,24.5310
2023-03-04T01:56:07.214Z,24.5270
2023-03-04T01:56:18.282Z,24.5210
2023-03-04T01:56:29.359Z,24.5190
2023-03-04T01:56:40.507Z,24.5130
2023-03-04T01:56:51.691Z,24.5330
2023-03-04T01:57:02.896Z,24.5490
2023-03-04T01:57:14.079Z,24.5650
2023-03-04T01:57:25.131Z,24.5620
2023-03-04T01:57:36.188Z,24.5570
2023-03-04T01:57:47.392Z,24.5620
2023-03-04T01:57:58.572Z,24.5590
2023-03-04T01:58:09.773Z,24.5490
2023-03-04T01:58:20.982Z,24.5490
2023-03-04T01:58:32.192Z,24.5410
2023-03-04T01:58:43.369Z,24.5240
2023-03-04T01:58:54.563Z,24.5150
2023-03-04T01:59:05.783Z,24.5090
2023-03-04T01:59:17.010Z,24.4940
2023-03-04T01:59:28.029Z,24.5030
2023-03-04T01:59:39.104Z,24.5080
2023-03-04T01:59:50.244Z,24.5170
2023-03-04T02:00:01.459Z,24.5220
2023-03-04T02:00:12.676Z,24.5360
2023-03-04T02:00:23.862Z,24.5520
2023-03-04T02:00:34.964Z,24.5520
2023-03-04T02:00:46.032Z,24.5380
2023-03-04T02:00:57.181Z,24.5330
2023-03-04T02:01:08.327Z,24.5220
2023-03-04T02:01:19.575Z,24.5170
2023-03-04T02:01:30.766Z,24.5120
2023-03-04T02:01:41.988Z,24.5220
2023-03-04T02:01:53.195Z,24.5020
2023-03-04T02:02:04.330Z,24.5080
2023-03-04T02:02:15.537Z,24.4920
2023-03-04T02:02:26.755Z,24.4980
2023-03-04T02:02:37.931Z,24.4980
2023-03-04T02:02:49.128Z,24.4920
2023-03-04T02:03:00.346Z,24.4880
2023-03-04T02:03:11.538Z,24.4700
2023-03-04T02:03:22.577Z,24.4460
2023-03-04T02:03:33.620Z,24.4300
2023-03-04T02:03:44.819Z,24.4300
2023-03-04T02:03:56.063Z,24.4190
2023-03-04T02:04:07.237Z,24.4440
2023-03-04T02:04:18.445Z,24.4530
2023-03-04T02:04:29.639Z,24.4530
2023-03-04T02:04:40.834Z,24.4730
2023-03-04T02:04:52.014Z,24.4600
2023-03-04T02:05:03.204Z,24.4600
2023-03-04T02:05:14.431Z,24.4860
2023-03-04T02:05:25.486Z,24.5020
2023-03-04T02:05:36.629Z,24.5190
2023-03-04T02:05:47.710Z,24.5280
2023-03-04T02:05:58.888Z,24.5330
2023-03-04T02:06:10.082Z,24.5490
2023-03-04T02:06:21.137Z,24.5440
2023-03-04T02:06:32.212Z,24.5490
2023-03-04T02:06:43.375Z,24.5550
2023-03-04T02:06:54.583Z,24.5550
2023-03-04T02:07:05.780Z,24.5410
2023-03-04T02:07:16.969Z,24.5310
2023-03-04T02:07:28.191Z,24.5220
2023-03-04T02:07:39.379Z,24.5280
2023-03-04T02:07:50.419Z,24.5170
2023-03-04T02:08:01.808Z,24.5170
2023-03-04T02:08:12.977Z,24.5120
2023-03-04T02:08:24.042Z,24.5120
2023-03-04T02:08:35.109Z,24.5140
2023-03-04T02:08:46.256Z,24.5190
2023-03-04T02:08:57.452Z,24.5170
2023-03-04T02:09:08.667Z,24.5170
2023-03-04T02:09:19.860Z,24.5170
2023-03-04T02:09:31.050Z,24.4910
2023-03-04T02:09:42.249Z,24.4920
2023-03-04T02:09:53.289Z,24.4660
2023-03-04T02:10:04.343Z,24.4600
2023-03-04T02:10:15.524Z,24.4550
2023-03-04T02:10:26.765Z,24.4490
2023-03-04T02:10:37.966Z,24.4490
2023-03-04T02:10:49.132Z,24.4520
2023-03-04T02:11:00.204Z,24.4430
2023-03-04T02:11:11.269Z,24.4230
2023-03-04T02:11:22.418Z,24.4040
2023-03-04T02:11:33.626Z,24.4140
2023-03-04T02:11:44.821Z,24.4070
2023-03-04T02:11:56.015Z,24.4280
2023-03-04T02:12:07.208Z,24.4230
2023-03-04T02:12:18.434Z,24.4280
2023-03-04T02:12:29.612Z,24.4220
2023-03-04T02:12:40.808Z,24.4160
2023-03-04T02:12:52.013Z,24.4300
2023-03-04T02:13:03.052Z,24.4340
2023-03-04T02:13:14.112Z,24.4490
2023-03-04T02:13:25.288Z,24.4480
2023-03-04T02:13:36.499Z,24.4800
2023-03-04T02:13:47.701Z,24.4800
2023-03-04T02:13:58.882Z,24.4910
2023-03-04T02:14:10.098Z,24.4740
2023-03-04T02:14:21.159Z,24.4550
2023-03-04T02:14:32.219Z,24.4480
2023-03-04T02:14:43.378Z,24.4380
2023-03-04T02:14:54.566Z,24.4590
2023-03-04T02:15:05.642Z,24.4480